Terminal Aerodrome Forecast
Issued by NWS Sterling, VA

Current Version | Previous Version | Text Only | Print | Product List | Glossary Off
Versions: 1 2 3 4 5 6 7 8 9 10 11 12 13 14 15 16 17 18 19 20 21 22 23 24 25 26 27 28

000
FTUS41 KLWX 241738
TAFIAD
TAF
KIAD 241738Z 2418/2524 12005KT P6SM BKN050
     FM242300 VRB03KT P6SM FEW050 SCT250
     FM250900 VRB03KT P6SM BKN050
     FM251400 16008KT P6SM OVC050
     FM251700 17008G16KT P6SM OVC025
     FM252300 17008KT P6SM OVC015=

USA.gov is the U.S. government's official web portal to all federal, state and local government web resources and services.